createdAt,value
2022-08-18T00:01:16.798Z,19.80
2022-08-18T00:03:55.968Z,19.70
2022-08-18T00:06:29.309Z,19.70
2022-08-18T00:09:01.009Z,19.60
2022-08-18T00:11:41.025Z,19.60
2022-08-18T00:14:13.832Z,19.60
2022-08-18T00:16:52.093Z,19.50
2022-08-18T00:19:20.740Z,19.50
2022-08-18T00:22:09.260Z,19.50
2022-08-18T00:24:48.183Z,19.50
2022-08-18T00:27:28.525Z,19.40
2022-08-18T00:29:59.099Z,19.40
2022-08-18T00:32:30.299Z,19.40
2022-08-18T00:35:05.639Z,19.40
2022-08-18T00:37:34.630Z,19.40
2022-08-18T00:40:05.831Z,19.40
2022-08-18T00:42:41.656Z,19.40
2022-08-18T00:45:17.978Z,19.40
2022-08-18T00:47:46.621Z,19.30
2022-08-18T00:50:28.551Z,19.30
2022-08-18T00:53:02.045Z,19.30
2022-08-18T00:55:33.896Z,19.30
2022-08-18T00:58:08.779Z,19.30
2022-08-18T01:00:37.777Z,19.20
2022-08-18T01:03:12.266Z,19.20
2022-08-18T01:05:46.297Z,19.20
2022-08-18T01:08:17.190Z,19.10
2022-08-18T01:11:01.777Z,19.10
2022-08-18T01:13:33.115Z,19.10
2022-08-18T01:16:23.028Z,19.00
2022-08-18T01:19:08.918Z,19.00
2022-08-18T01:21:53.774Z,18.90
2022-08-18T01:24:47.679Z,18.90
2022-08-18T01:27:18.694Z,18.90
2022-08-18T01:29:48.690Z,18.90
2022-08-18T01:32:20.490Z,18.90
2022-08-18T01:34:50.532Z,18.90
2022-08-18T01:37:22.246Z,18.90
2022-08-18T01:41:23.420Z,18.90
2022-08-18T01:42:45.889Z,18.80
2022-08-18T01:45:16.852Z,18.80
2022-08-18T01:47:47.417Z,18.80
2022-08-18T01:50:17.415Z,18.70
2022-08-18T01:52:46.027Z,18.70
2022-08-18T01:55:19.189Z,18.70
2022-08-18T01:57:47.745Z,18.60
2022-08-18T02:00:18.869Z,18.60
2022-08-18T02:02:58.137Z,18.50
2022-08-18T02:05:35.692Z,18.50
2022-08-18T02:08:04.970Z,18.50
2022-08-18T02:10:35.159Z,18.50
2022-08-18T02:13:04.017Z,18.50
2022-08-18T02:15:32.709Z,18.40
2022-08-18T02:18:01.067Z,18.40
2022-08-18T02:20:29.605Z,18.40
2022-08-18T02:22:58.698Z,18.40
2022-08-18T02:25:27.089Z,18.40
2022-08-18T02:27:58.290Z,18.40
2022-08-18T02:30:26.719Z,18.40
2022-08-18T02:32:56.749Z,18.40
2022-08-18T02:35:25.007Z,18.40
2022-08-18T02:37:54.602Z,18.40
2022-08-18T02:40:23.347Z,18.40
2022-08-18T02:42:52.828Z,18.40
2022-08-18T02:45:24.288Z,18.30
2022-08-18T02:47:54.166Z,18.30
2022-08-18T02:50:23.649Z,18.30
2022-08-18T02:52:52.205Z,18.30
2022-08-18T02:55:22.485Z,18.30
2022-08-18T02:57:50.981Z,18.30
2022-08-18T03:00:20.587Z,18.30
2022-08-18T03:02:51.642Z,18.30
2022-08-18T03:05:21.137Z,18.30
2022-08-18T03:07:50.605Z,18.30
2022-08-18T03:10:32.717Z,18.30
2022-08-18T03:13:02.774Z,18.30
2022-08-18T03:15:31.185Z,18.30
2022-08-18T03:18:02.227Z,18.30
2022-08-18T03:20:31.626Z,18.40
2022-08-18T03:23:05.565Z,18.40
2022-08-18T03:25:44.167Z,18.40
2022-08-18T03:28:12.535Z,18.40
2022-08-18T03:30:40.991Z,18.40
2022-08-18T03:33:11.284Z,18.40
2022-08-18T03:35:41.120Z,18.40
2022-08-18T03:38:10.290Z,18.40
2022-08-18T03:40:38.654Z,18.40
2022-08-18T03:43:23.598Z,18.40
2022-08-18T03:45:56.924Z,18.40
2022-08-18T03:48:26.706Z,18.30
2022-08-18T03:50:55.075Z,18.30
2022-08-18T03:53:23.628Z,18.30
2022-08-18T03:55:52.025Z,18.30
2022-08-18T03:58:20.524Z,18.30
2022-08-18T04:00:48.896Z,18.30
2022-08-18T04:03:17.366Z,18.30
2022-08-18T04:05:47.634Z,18.30
2022-08-18T04:08:15.969Z,18.40
2022-08-18T04:10:45.928Z,18.40
2022-08-18T04:13:14.305Z,18.40
2022-08-18T04:15:42.697Z,18.40
2022-08-18T04:18:12.314Z,18.40
2022-08-18T04:20:59.471Z,18.40
2022-08-18T04:23:29.839Z,18.40
2022-08-18T04:26:09.604Z,18.40
2022-08-18T04:28:47.694Z,18.40
2022-08-18T04:31:18.195Z,18.40
2022-08-18T04:33:46.540Z,18.50
2022-08-18T04:36:19.184Z,18.50
2022-08-18T04:38:51.064Z,18.50
2022-08-18T04:41:19.535Z,18.50
2022-08-18T04:43:50.744Z,18.40
2022-08-18T04:46:24.020Z,18.50
2022-08-18T04:48:56.626Z,18.50
2022-08-18T04:52:26.846Z,18.50
2022-08-18T04:54:13.766Z,18.50
2022-08-18T04:56:42.227Z,18.50
2022-08-18T04:59:14.156Z,18.50
2022-08-18T05:01:45.635Z,18.50
2022-08-18T05:04:15.744Z,18.50
2022-08-18T05:06:45.946Z,18.50
2022-08-18T05:09:23.154Z,18.50
2022-08-18T05:11:51.847Z,18.50
2022-08-18T05:14:21.447Z,18.50
2022-08-18T05:16:50.043Z,18.50
2022-08-18T05:19:23.271Z,18.50
2022-08-18T05:21:57.673Z,18.40
2022-08-18T05:24:37.241Z,18.50
2022-08-18T05:27:07.528Z,18.40
2022-08-18T05:29:41.725Z,18.40
2022-08-18T05:32:36.916Z,18.50
2022-08-18T05:35:06.367Z,18.50
2022-08-18T05:37:42.584Z,18.50
2022-08-18T05:40:12.432Z,18.60
2022-08-18T05:42:42.107Z,18.60
2022-08-18T05:45:14.755Z,18.70
2022-08-18T05:47:43.395Z,18.70
2022-08-18T05:50:16.474Z,18.80
2022-08-18T05:52:52.921Z,18.80
2022-08-18T05:55:47.946Z,18.90
2022-08-18T05:58:19.395Z,19.00
2022-08-18T06:00:57.463Z,19.10
2022-08-18T06:03:45.162Z,19.30
2022-08-18T06:06:20.068Z,19.50
2022-08-18T06:08:53.901Z,19.60
2022-08-18T06:11:23.936Z,19.60
2022-08-18T06:13:59.024Z,19.80
2022-08-18T06:16:44.588Z,20.00
2022-08-18T06:19:28.316Z,20.00
2022-08-18T06:22:04.718Z,20.30
2022-08-18T06:24:38.699Z,20.40
2022-08-18T06:27:18.877Z,20.60
2022-08-18T06:29:56.719Z,20.90
2022-08-18T06:32:36.995Z,21.00
2022-08-18T06:35:19.195Z,21.20
2022-08-18T06:38:31.754Z,21.50
2022-08-18T06:41:05.030Z,21.70
2022-08-18T06:43:36.834Z,21.80
2022-08-18T06:46:13.685Z,21.80
2022-08-18T06:48:52.143Z,21.70
2022-08-18T06:51:23.383Z,21.60
2022-08-18T06:53:58.235Z,21.50
2022-08-18T06:56:33.355Z,21.40
2022-08-18T06:59:19.983Z,21.50
2022-08-18T07:01:51.264Z,21.90
2022-08-18T07:04:42.397Z,22.10
2022-08-18T07:07:17.396Z,22.00
2022-08-18T07:09:46.453Z,21.90
2022-08-18T07:12:22.893Z,21.80
2022-08-18T07:14:55.226Z,21.70
2022-08-18T07:17:42.330Z,21.70
2022-08-18T07:20:21.627Z,21.80
2022-08-18T07:22:56.010Z,21.90
2022-08-18T07:25:27.764Z,22.10
2022-08-18T07:27:57.274Z,22.20
2022-08-18T07:30:34.393Z,22.40
2022-08-18T07:33:13.104Z,22.60
2022-08-18T07:35:46.343Z,22.60
2022-08-18T07:41:16.189Z,23.40
2022-08-18T07:44:07.527Z,23.50
2022-08-18T07:46:56.526Z,24.00
2022-08-18T07:49:27.556Z,24.00
2022-08-18T07:52:00.821Z,24.10
2022-08-18T07:54:49.894Z,24.50
2022-08-18T07:57:26.485Z,24.60
2022-08-18T08:00:04.394Z,24.50
2022-08-18T08:02:41.841Z,24.20
2022-08-18T08:05:21.677Z,23.80
2022-08-18T08:07:56.934Z,23.60
2022-08-18T08:10:36.353Z,23.70
2022-08-18T08:13:37.020Z,23.40
2022-08-18T08:16:15.949Z,23.30
2022-08-18T08:18:55.189Z,23.30
2022-08-18T08:21:26.905Z,23.50
2022-08-18T08:24:12.216Z,23.50
2022-08-18T08:26:50.435Z,23.90
2022-08-18T08:29:31.405Z,24.30
2022-08-18T08:32:04.745Z,24.50
2022-08-18T08:34:43.182Z,24.50
2022-08-18T08:37:17.964Z,24.80
2022-08-18T08:39:50.993Z,25.00
2022-08-18T08:42:29.196Z,25.10
2022-08-18T08:45:07.320Z,25.30
2022-08-18T08:47:40.085Z,25.00
2022-08-18T08:50:14.826Z,24.80
2022-08-18T08:52:47.676Z,24.70
2022-08-18T08:55:21.537Z,24.70
2022-08-18T08:57:55.375Z,24.90
2022-08-18T09:00:27.664Z,25.20
2022-08-18T09:03:11.844Z,25.30
2022-08-18T09:05:56.167Z,25.30
2022-08-18T09:08:57.339Z,25.20
2022-08-18T09:11:50.466Z,24.80
2022-08-18T09:15:04.872Z,24.80
2022-08-18T09:18:08.678Z,24.50
2022-08-18T09:20:54.583Z,24.60
2022-08-18T09:23:26.356Z,24.30
2022-08-18T09:25:56.807Z,24.20
2022-08-18T09:28:56.685Z,23.70
2022-08-18T09:31:26.338Z,23.30
2022-08-18T09:34:19.124Z,23.10
2022-08-18T09:37:02.083Z,22.80
2022-08-18T09:42:49.790Z,22.80
2022-08-18T09:45:42.586Z,23.00
2022-08-18T09:48:29.280Z,23.10
2022-08-18T09:51:33.084Z,23.30
2022-08-18T09:54:21.833Z,23.70
2022-08-18T09:57:24.472Z,23.60
2022-08-18T09:59:59.273Z,23.70
2022-08-18T10:03:10.377Z,23.60
2022-08-18T10:05:39.195Z,24.00
2022-08-18T10:08:47.889Z,24.20
2022-08-18T10:11:30.657Z,24.50
2022-08-18T10:14:21.265Z,24.70
2022-08-18T10:17:22.543Z,24.70
2022-08-18T10:20:01.055Z,24.40
2022-08-18T10:22:43.300Z,24.10
2022-08-18T10:28:05.859Z,24.00
2022-08-18T10:31:09.882Z,24.10
2022-08-18T10:34:16.085Z,24.20
2022-08-18T10:36:52.536Z,24.30
2022-08-18T10:39:23.383Z,24.70
2022-08-18T10:42:01.528Z,24.80
2022-08-18T10:44:36.195Z,24.80
2022-08-18T10:49:54.488Z,25.10
2022-08-18T10:53:24.045Z,25.20
2022-08-18T10:55:51.868Z,25.40
2022-08-18T10:58:52.925Z,25.40
2022-08-18T11:01:36.253Z,25.40
2022-08-18T11:04:22.524Z,25.20
2022-08-18T11:07:14.709Z,25.30
2022-08-18T11:09:57.110Z,25.40
2022-08-18T11:12:56.546Z,25.20
2022-08-18T11:15:38.480Z,25.30
2022-08-18T11:18:31.106Z,25.30
2022-08-18T11:21:24.856Z,25.20
2022-08-18T11:24:11.753Z,24.90
2022-08-18T11:26:44.915Z,24.90
2022-08-18T11:29:29.182Z,24.60
2022-08-18T11:32:10.970Z,24.40
2022-08-18T11:34:51.875Z,24.40
2022-08-18T11:37:48.907Z,24.40
2022-08-18T11:41:11.147Z,24.40
2022-08-18T11:46:32.011Z,24.50
2022-08-18T11:49:04.349Z,24.70
2022-08-18T11:51:36.016Z,24.60
2022-08-18T11:54:23.545Z,24.60
2022-08-18T11:56:53.672Z,24.80
2022-08-18T11:59:54.201Z,25.10
2022-08-18T12:02:26.176Z,25.40
2022-08-18T12:05:03.124Z,25.40
2022-08-18T12:07:36.593Z,25.60
2022-08-18T12:10:19.863Z,25.50
2022-08-18T12:12:54.101Z,25.60
2022-08-18T12:15:44.167Z,25.70
2022-08-18T12:18:26.397Z,25.90
2022-08-18T12:20:59.052Z,26.00
2022-08-18T12:23:38.474Z,26.50
2022-08-18T12:26:27.194Z,26.70
2022-08-18T12:29:08.946Z,26.70
2022-08-18T12:31:42.440Z,26.90
2022-08-18T12:34:16.676Z,27.10
2022-08-18T12:36:46.677Z,26.80
2022-08-18T12:39:17.017Z,26.40
2022-08-18T12:41:45.733Z,26.20
2022-08-18T12:44:15.228Z,26.30
2022-08-18T12:46:46.924Z,26.10
2022-08-18T12:49:18.945Z,25.90
2022-08-18T12:51:50.168Z,25.90
2022-08-18T12:54:20.664Z,25.80
2022-08-18T12:56:52.794Z,26.10
2022-08-18T12:59:21.524Z,26.40
2022-08-18T13:01:58.310Z,26.60
2022-08-18T13:04:27.407Z,26.30
2022-08-18T13:07:01.965Z,26.40
2022-08-18T13:09:53.384Z,26.40
2022-08-18T13:12:24.243Z,26.10
2022-08-18T13:14:55.095Z,26.10
2022-08-18T13:17:30.257Z,26.20
2022-08-18T13:20:05.226Z,26.20
2022-08-18T13:22:36.020Z,26.20
2022-08-18T13:25:07.610Z,26.20
2022-08-18T13:27:37.565Z,25.90
2022-08-18T13:30:16.676Z,25.90
2022-08-18T13:33:02.342Z,25.60
2022-08-18T13:35:38.276Z,25.70
2022-08-18T13:38:14.521Z,25.60
2022-08-18T13:40:48.624Z,25.70
2022-08-18T13:43:18.067Z,25.60
2022-08-18T13:45:52.798Z,25.80
2022-08-18T13:48:21.646Z,26.10
2022-08-18T13:50:55.874Z,26.00
2022-08-18T13:53:26.368Z,26.10
2022-08-18T13:55:59.375Z,25.90
2022-08-18T13:58:28.906Z,26.10
2022-08-18T14:01:22.626Z,26.10
2022-08-18T14:03:48.260Z,26.40
2022-08-18T14:06:22.657Z,26.60
2022-08-18T14:08:54.070Z,26.70
2022-08-18T14:11:32.851Z,26.90
2022-08-18T14:14:03.565Z,27.20
2022-08-18T14:16:46.680Z,27.30
2022-08-18T14:19:33.779Z,27.50
2022-08-18T14:22:20.022Z,28.10
2022-08-18T14:25:07.259Z,28.60
2022-08-18T14:27:40.461Z,29.10
2022-08-18T14:30:11.829Z,29.40
2022-08-18T14:32:48.983Z,30.10
2022-08-18T14:36:03.741Z,30.90
2022-08-18T14:38:09.824Z,31.50
2022-08-18T14:40:41.672Z,31.80
2022-08-18T14:43:15.712Z,32.40
2022-08-18T14:45:48.917Z,33.00
2022-08-18T14:48:20.565Z,33.40
2022-08-18T14:50:55.584Z,33.90
2022-08-18T14:53:27.651Z,33.90
2022-08-18T14:55:57.689Z,33.80
2022-08-18T14:58:33.480Z,33.50
2022-08-18T15:01:08.502Z,32.80
2022-08-18T15:03:41.540Z,32.30
2022-08-18T15:06:16.907Z,30.40
2022-08-18T15:08:46.904Z,30.10
2022-08-18T15:11:16.668Z,30.20
2022-08-18T15:13:47.570Z,30.50
2022-08-18T15:16:17.627Z,30.70
2022-08-18T15:18:47.789Z,30.80
2022-08-18T15:21:38.863Z,31.00
2022-08-18T15:24:25.759Z,30.90
2022-08-18T15:26:58.335Z,30.90
2022-08-18T15:29:36.383Z,30.80
2022-08-18T15:32:10.570Z,30.50
2022-08-18T15:34:46.726Z,30.30
2022-08-18T15:37:22.285Z,30.20
2022-08-18T15:40:02.849Z,30.10
2022-08-18T15:42:31.538Z,30.10
2022-08-18T15:45:12.075Z,30.00
2022-08-18T15:47:42.658Z,29.80
2022-08-18T15:50:26.032Z,29.60
2022-08-18T15:52:58.130Z,29.40
2022-08-18T15:55:28.991Z,29.20
2022-08-18T15:58:01.642Z,29.10
2022-08-18T16:00:32.914Z,28.90
2022-08-18T16:03:04.783Z,28.80
2022-08-18T16:05:40.855Z,28.70
2022-08-18T16:08:11.921Z,28.70
2022-08-18T16:10:41.955Z,28.70
2022-08-18T16:13:10.353Z,28.70
2022-08-18T16:15:42.176Z,28.50
2022-08-18T16:18:12.435Z,28.50
2022-08-18T16:20:41.214Z,28.40
2022-08-18T16:23:09.686Z,28.40
2022-08-18T16:25:39.794Z,28.40
2022-08-18T16:28:08.405Z,28.40
2022-08-18T16:30:37.218Z,28.40
2022-08-18T16:33:08.326Z,27.90
2022-08-18T16:35:37.413Z,27.80
2022-08-18T16:38:07.668Z,27.60
2022-08-18T16:40:36.106Z,27.50
2022-08-18T16:43:05.422Z,27.30
2022-08-18T16:45:36.012Z,27.20
2022-08-18T16:48:08.312Z,27.10
2022-08-18T16:50:38.436Z,27.00
2022-08-18T16:53:07.229Z,26.90
2022-08-18T16:55:37.629Z,26.90
2022-08-18T16:58:25.671Z,27.00
2022-08-18T17:01:15.646Z,27.10
2022-08-18T17:04:20.133Z,27.10
2022-08-18T17:06:49.903Z,27.30
2022-08-18T17:09:18.801Z,27.40
2022-08-18T17:11:52.007Z,27.50
2022-08-18T17:14:21.940Z,27.50
2022-08-18T17:16:54.643Z,27.40
2022-08-18T17:19:27.542Z,27.40
2022-08-18T17:21:56.319Z,27.30
2022-08-18T17:24:32.134Z,27.20
2022-08-18T17:27:25.661Z,27.10
2022-08-18T17:30:03.721Z,27.00
2022-08-18T17:32:42.191Z,26.70
2022-08-18T17:35:14.993Z,26.60
2022-08-18T17:37:49.542Z,26.40
2022-08-18T17:40:22.754Z,26.40
2022-08-18T17:42:52.678Z,26.40
2022-08-18T17:45:22.527Z,26.40
2022-08-18T17:47:55.393Z,26.40
2022-08-18T17:50:47.283Z,26.40
2022-08-18T17:53:17.442Z,26.30
2022-08-18T17:55:48.883Z,26.30
2022-08-18T17:58:24.805Z,26.20
2022-08-18T18:00:53.774Z,26.20
2022-08-18T18:03:23.045Z,26.20
2022-08-18T18:06:10.231Z,26.10
2022-08-18T18:08:58.382Z,26.10
2022-08-18T18:11:32.674Z,26.00
2022-08-18T18:14:02.825Z,25.90
2022-08-18T18:16:35.451Z,25.80
2022-08-18T18:19:07.820Z,25.70
2022-08-18T18:21:55.380Z,25.60
2022-08-18T18:24:33.226Z,25.60
2022-08-18T18:27:02.211Z,25.40
2022-08-18T18:29:37.695Z,25.30
2022-08-18T18:32:24.233Z,25.20
2022-08-18T18:35:13.507Z,25.10
2022-08-18T18:37:57.192Z,25.00
2022-08-18T18:40:31.705Z,24.90
2022-08-18T18:43:20.989Z,24.80
2022-08-18T18:46:24.026Z,24.70
2022-08-18T18:49:01.976Z,24.60
2022-08-18T18:51:39.829Z,24.50
2022-08-18T18:54:36.467Z,24.40
2022-08-18T18:57:12.722Z,24.30
2022-08-18T18:59:52.023Z,24.20
2022-08-18T19:02:33.593Z,24.10
2022-08-18T19:05:13.518Z,24.00
2022-08-18T19:07:56.450Z,23.90
2022-08-18T19:10:35.077Z,23.90
2022-08-18T19:13:10.226Z,23.80
2022-08-18T19:15:41.266Z,23.70
2022-08-18T19:18:25.978Z,23.60
2022-08-18T19:22:01.917Z,23.50
2022-08-18T19:23:52.287Z,23.40
2022-08-18T19:26:34.700Z,23.30
2022-08-18T19:29:13.290Z,23.30
2022-08-18T19:31:48.440Z,23.20
2022-08-18T19:34:22.881Z,23.20
2022-08-18T19:37:02.976Z,23.10
2022-08-18T19:39:40.858Z,23.10
2022-08-18T19:42:17.745Z,23.00
2022-08-18T19:45:13.440Z,22.90
2022-08-18T19:47:50.125Z,22.90
2022-08-18T19:50:35.460Z,22.80
2022-08-18T19:53:30.294Z,22.70
2022-08-18T19:56:21.619Z,22.70
2022-08-18T19:59:19.455Z,22.60
2022-08-18T20:02:01.256Z,22.50
2022-08-18T20:04:43.638Z,22.40
2022-08-18T20:07:55.811Z,22.40
2022-08-18T20:10:53.586Z,22.30
2022-08-18T20:13:33.751Z,22.20
2022-08-18T20:16:16.217Z,22.10
2022-08-18T20:18:49.037Z,22.00
2022-08-18T20:21:41.671Z,22.00
2022-08-18T20:24:30.375Z,21.90
2022-08-18T20:27:16.954Z,21.90
2022-08-18T20:29:47.646Z,21.80
2022-08-18T20:32:29.265Z,21.80
2022-08-18T20:35:17.450Z,21.70
2022-08-18T20:37:46.327Z,21.70
2022-08-18T20:40:42.760Z,21.70
2022-08-18T20:43:27.828Z,21.60
2022-08-18T20:46:16.176Z,21.60
2022-08-18T20:49:06.380Z,21.60
2022-08-18T20:51:42.813Z,21.60
2022-08-18T20:54:39.364Z,21.50
2022-08-18T20:57:26.984Z,21.50
2022-08-18T21:00:04.008Z,21.50
2022-08-18T21:02:40.753Z,21.50
2022-08-18T21:05:27.536Z,21.50
2022-08-18T21:08:03.906Z,21.40
2022-08-18T21:10:35.074Z,21.40
2022-08-18T21:13:08.364Z,21.40
2022-08-18T21:15:38.693Z,21.40
2022-08-18T21:18:21.133Z,21.30
2022-08-18T21:20:53.143Z,21.30
2022-08-18T21:23:27.285Z,21.20
2022-08-18T21:26:06.389Z,21.20
2022-08-18T21:28:38.889Z,21.10
2022-08-18T21:31:29.069Z,21.10
2022-08-18T21:34:29.283Z,21.00
2022-08-18T21:37:02.007Z,21.00
2022-08-18T21:39:30.902Z,21.00
2022-08-18T21:42:01.578Z,20.90
2022-08-18T21:44:41.878Z,20.90
2022-08-18T21:47:19.134Z,20.90
2022-08-18T21:50:00.160Z,20.80
2022-08-18T21:52:32.353Z,20.80
2022-08-18T21:55:04.454Z,20.70
2022-08-18T21:58:01.008Z,20.70
2022-08-18T22:00:32.218Z,20.70
2022-08-18T22:03:20.645Z,20.60
2022-08-18T22:05:59.910Z,20.60
2022-08-18T22:08:35.007Z,20.60
2022-08-18T22:11:59.356Z,20.60
2022-08-18T22:14:36.072Z,20.60
2022-08-18T22:17:30.274Z,20.50
2022-08-18T22:20:37.385Z,20.50
2022-08-18T22:23:35.523Z,20.50
2022-08-18T22:26:15.146Z,20.40
2022-08-18T22:28:50.975Z,20.40
2022-08-18T22:31:24.193Z,20.30
2022-08-18T22:33:55.135Z,20.30
2022-08-18T22:36:27.927Z,20.30
2022-08-18T22:38:57.072Z,20.30
2022-08-18T22:41:26.973Z,20.20
2022-08-18T22:43:55.550Z,20.20
2022-08-18T22:46:25.165Z,20.10
2022-08-18T22:48:54.582Z,20.10
2022-08-18T22:51:25.257Z,20.10
2022-08-18T22:53:54.283Z,20.00
2022-08-18T22:56:34.678Z,20.00
2022-08-18T22:59:13.383Z,19.90
2022-08-18T23:01:46.410Z,19.90
2022-08-18T23:04:16.213Z,19.80
2022-08-18T23:06:52.222Z,19.80
2022-08-18T23:09:22.666Z,19.70
2022-08-18T23:11:56.620Z,19.70
2022-08-18T23:14:27.069Z,19.70
2022-08-18T23:16:56.293Z,19.60
2022-08-18T23:19:24.639Z,19.60
2022-08-18T23:21:53.253Z,19.50
2022-08-18T23:24:22.234Z,19.50
2022-08-18T23:26:54.013Z,19.50
2022-08-18T23:29:26.080Z,19.40
2022-08-18T23:31:54.783Z,19.40
2022-08-18T23:34:24.795Z,19.30
2022-08-18T23:36:56.678Z,19.30
2022-08-18T23:39:26.558Z,19.20
2022-08-18T23:41:58.074Z,19.20
2022-08-18T23:44:28.327Z,19.20
2022-08-18T23:46:58.166Z,19.10
2022-08-18T23:49:28.922Z,19.10
2022-08-18T23:51:58.354Z,19.10
2022-08-18T23:54:29.756Z,19.00
2022-08-18T23:56:59.137Z,19.00
2022-08-18T23:59:29.925Z,19.00
